Time;durP1;ratioP1;P1;durP2;ratioP2;P2;SDS_P1;SDS_P2;PMS_P1;PMS_P2;Temp;Humidity;BMP_temperature;BMP_pressure;BME280_temperature;BME280_humidity;BME280_pressure;Samples;Min_cycle;Max_cycle;Signal;HPM_P1;HPM_P2
2023/01/29 00:00:36;;;;;;;15.10;8.03;;;-0.40;99.90;;;;;;4132094;28;20422;-67
2023/01/29 00:02:36;;;;;;;12.97;6.87;;;-0.40;99.90;;;;;;4149550;28;20435;-67
2023/01/29 00:04:38;;;;;;;14.50;7.70;;;-0.40;99.90;;;;;;4129308;28;20183;-68
2023/01/29 00:06:39;;;;;;;17.70;9.43;;;-0.60;99.90;;;;;;4134590;28;20629;-67
2023/01/29 00:08:40;;;;;;;15.30;8.43;;;-0.70;99.90;;;;;;4117717;28;20454;-66
2023/01/29 00:10:41;;;;;;;22.70;9.20;;;-0.70;99.90;;;;;;4133205;28;20613;-67
2023/01/29 00:12:41;;;;;;;16.23;8.53;;;-0.70;99.90;;;;;;4115933;28;20301;-67
2023/01/29 00:14:42;;;;;;;15.87;8.50;;;-0.70;99.90;;;;;;4133287;28;20278;-67
2023/01/29 00:16:43;;;;;;;20.70;9.70;;;-0.80;99.90;;;;;;4115686;28;20193;-67
2023/01/29 00:18:45;;;;;;;17.73;8.80;;;-0.80;99.90;;;;;;4115391;28;20695;-67
2023/01/29 00:20:46;;;;;;;17.60;9.87;;;-0.80;99.90;;;;;;4115245;28;20643;-67
2023/01/29 00:22:46;;;;;;;16.07;8.93;;;-0.90;99.90;;;;;;4164168;28;20466;-67
2023/01/29 00:24:47;;;;;;;14.17;7.50;;;-1.00;99.90;;;;;;4155087;28;20280;-67
2023/01/29 00:26:49;;;;;;;16.27;8.13;;;-1.00;99.90;;;;;;4153835;28;20544;-68
2023/01/29 00:28:51;;;;;;;12.73;7.33;;;-0.90;99.90;;;;;;4134636;28;20587;-67
2023/01/29 00:30:52;;;;;;;11.80;7.17;;;-0.80;99.90;;;;;;4131541;28;21081;-67
2023/01/29 00:32:53;;;;;;;14.37;7.73;;;-0.80;99.90;;;;;;4148857;28;20472;-67
2023/01/29 00:34:54;;;;;;;13.23;7.30;;;-0.70;99.90;;;;;;4148866;28;20535;-67
2023/01/29 00:37:03;;;;;;;11.53;6.80;;;-0.70;99.90;;;;;;4131784;28;20216;-68
2023/01/29 00:39:09;;;;;;;13.27;7.63;;;-0.70;99.90;;;;;;4149806;28;20193;-67
2023/01/29 00:45:51;;;;;;;13.63;5.77;;;-0.60;99.90;;;;;;4149115;28;20852;-67
2023/01/29 00:47:52;;;;;;;10.83;6.50;;;-0.60;99.90;;;;;;4131516;28;20508;-67
2023/01/29 00:49:53;;;;;;;12.80;6.57;;;-0.60;99.90;;;;;;4130829;28;20680;-68
2023/01/29 00:54:13;;;;;;;10.47;6.67;;;-0.80;99.90;;;;;;4133696;28;20449;-67
2023/01/29 00:56:14;;;;;;;11.83;7.03;;;-0.80;99.90;;;;;;4148365;28;20434;-67
2023/01/29 00:58:21;;;;;;;13.17;6.87;;;-0.80;99.90;;;;;;4131158;28;20698;-67
2023/01/29 01:00:23;;;;;;;9.50;6.03;;;-0.80;99.90;;;;;;4148519;28;20224;-67
2023/01/29 01:04:44;;;;;;;8.70;5.67;;;-1.00;99.90;;;;;;4133605;28;20426;-68
2023/01/29 01:06:44;;;;;;;11.13;6.30;;;-0.90;99.90;;;;;;4149179;28;20432;-67
2023/01/29 01:11:05;;;;;;;10.97;6.03;;;-1.00;99.90;;;;;;4148193;28;20241;-67
2023/01/29 01:13:07;;;;;;;11.27;6.20;;;-0.90;99.90;;;;;;4130950;28;20536;-67
2023/01/29 01:15:08;;;;;;;9.07;6.30;;;-1.10;99.90;;;;;;4132870;28;20445;-67
2023/01/29 01:17:09;;;;;;;10.87;6.13;;;-1.00;99.90;;;;;;4148490;28;21213;-68
2023/01/29 01:19:11;;;;;;;11.37;6.27;;;-0.90;99.90;;;;;;4131643;28;20446;-67
2023/01/29 01:21:12;;;;;;;9.80;6.10;;;-0.90;99.90;;;;;;4148819;28;20603;-67
2023/01/29 01:23:12;;;;;;;12.07;6.57;;;-0.80;99.90;;;;;;4131271;28;20440;-67
2023/01/29 01:25:15;;;;;;;10.60;6.40;;;-0.80;99.90;;;;;;4130669;28;20186;-67
2023/01/29 01:27:18;;;;;;;11.07;6.20;;;-0.80;99.90;;;;;;4130790;28;20186;-67
2023/01/29 01:29:18;;;;;;;8.83;5.93;;;-1.10;99.90;;;;;;4130994;28;20971;-67
2023/01/29 01:31:19;;;;;;;11.40;6.70;;;-1.10;99.90;;;;;;4130621;28;20500;-68
2023/01/29 01:33:20;;;;;;;12.80;7.13;;;-1.00;99.90;;;;;;4146862;28;20241;-67
2023/01/29 01:35:21;;;;;;;10.93;5.93;;;-0.90;99.90;;;;;;4114890;28;20215;-67
2023/01/29 01:37:22;;;;;;;9.73;5.50;;;-0.90;99.90;;;;;;4114535;28;20286;-67
2023/01/29 01:39:24;;;;;;;8.50;5.83;;;-1.00;99.90;;;;;;4130592;28;20449;-67
2023/01/29 01:41:25;;;;;;;11.97;6.13;;;-0.90;99.90;;;;;;4147515;28;20276;-67
2023/01/29 01:43:26;;;;;;;10.40;5.80;;;-0.80;99.90;;;;;;4147785;28;20805;-66
2023/01/29 01:45:28;;;;;;;9.73;6.30;;;-1.00;99.90;;;;;;4130560;28;20182;-67
2023/01/29 01:47:41;;;;;;;9.77;5.67;;;-1.00;99.90;;;;;;4147622;28;20216;-67
2023/01/29 01:49:44;;;;;;;12.87;5.73;;;-1.00;99.90;;;;;;4129898;28;20528;-67
2023/01/29 01:51:50;;;;;;;9.00;5.67;;;-0.90;99.90;;;;;;4130521;28;20478;-67
2023/01/29 01:54:08;;;;;;;10.43;6.57;;;-0.80;99.90;;;;;;4131013;28;20425;-67
2023/01/29 01:56:15;;;;;;;10.53;5.93;;;-0.80;99.90;;;;;;4148081;28;20408;-67
2023/01/29 01:58:40;;;;;;;11.37;6.67;;;-0.90;99.90;;;;;;4130444;28;20457;-66
2023/01/29 02:00:41;;;;;;;9.73;6.50;;;-0.90;99.90;;;;;;4130324;28;20456;-67
2023/01/29 02:09:51;;;;;;;11.67;6.53;;;-1.40;99.90;;;;;;4147811;28;20486;-67
2023/01/29 02:11:52;;;;;;;11.60;7.03;;;-1.30;99.90;;;;;;4130653;28;20483;-67
2023/01/29 02:13:53;;;;;;;10.40;6.40;;;-1.00;99.90;;;;;;4130491;28;20444;-68
2023/01/29 02:15:54;;;;;;;9.23;6.17;;;-0.90;99.90;;;;;;4148249;28;20421;-67
2023/01/29 02:17:54;;;;;;;11.33;6.90;;;-0.90;99.90;;;;;;4130271;28;20757;-67
2023/01/29 02:20:23;;;;;;;11.70;6.77;;;-1.00;99.90;;;;;;4129765;28;20216;-69
2023/01/29 02:23:02;;;;;;;8.43;5.10;;;-1.10;99.90;;;;;;4130445;28;20170;-67
2023/01/29 02:25:57;;;;;;;8.87;5.20;;;-1.20;99.90;;;;;;4147502;28;20466;-67
2023/01/29 02:28:07;;;;;;;11.40;6.17;;;-1.40;99.90;;;;;;4115418;28;20485;-69
2023/01/29 02:30:26;;;;;;;7.63;5.20;;;-1.30;99.90;;;;;;4147621;28;20428;-66
2023/01/29 02:32:37;;;;;;;11.27;5.33;;;-1.20;99.90;;;;;;4130212;28;20584;-66
2023/01/29 02:37:11;;;;;;;10.43;5.73;;;-1.30;99.90;;;;;;4165730;28;20438;-67
2023/01/29 02:39:32;;;;;;;9.53;5.77;;;-1.30;99.90;;;;;;4145907;28;20480;-67
2023/01/29 02:42:13;;;;;;;9.47;5.23;;;-1.20;99.90;;;;;;4165884;28;20924;-67
2023/01/29 02:44:36;;;;;;;8.77;5.73;;;-1.30;99.90;;;;;;4144982;28;20515;-67
2023/01/29 02:46:58;;;;;;;9.77;5.60;;;-1.20;99.90;;;;;;4129614;28;20445;-68
2023/01/29 02:49:30;;;;;;;10.40;6.03;;;-1.20;99.90;;;;;;4164011;28;20443;-67
2023/01/29 02:52:02;;;;;;;10.20;5.40;;;-1.10;99.90;;;;;;4145713;28;20416;-67
2023/01/29 02:54:14;;;;;;;7.63;5.30;;;-1.10;99.90;;;;;;4144673;28;21026;-67
2023/01/29 02:56:21;;;;;;;8.93;5.33;;;-1.30;99.90;;;;;;4145660;28;20448;-68
2023/01/29 02:58:44;;;;;;;7.87;5.33;;;-1.30;99.90;;;;;;4130310;28;20445;-67
2023/01/29 03:00:47;;;;;;;6.73;4.67;;;-1.50;99.90;;;;;;4163547;28;20447;-67
2023/01/29 03:02:54;;;;;;;9.70;4.93;;;-1.50;99.90;;;;;;4146065;28;20842;-66
2023/01/29 03:05:02;;;;;;;7.00;5.13;;;-1.50;99.90;;;;;;4145952;28;20886;-67
2023/01/29 03:07:09;;;;;;;6.63;4.40;;;-1.40;99.90;;;;;;4145623;28;20452;-67
2023/01/29 03:09:25;;;;;;;7.13;4.50;;;-1.30;99.90;;;;;;4163078;28;20455;-67
2023/01/29 03:11:38;;;;;;;9.10;4.97;;;-1.20;99.90;;;;;;4114926;28;20450;-67
2023/01/29 03:14:03;;;;;;;7.73;5.03;;;-1.00;99.90;;;;;;4146710;28;20428;-67
2023/01/29 03:16:23;;;;;;;8.23;4.90;;;-1.00;99.90;;;;;;4129654;28;21205;-67
2023/01/29 03:18:30;;;;;;;7.87;5.10;;;-1.00;99.90;;;;;;4129582;28;20525;-68
2023/01/29 03:20:38;;;;;;;8.50;5.07;;;-0.80;99.90;;;;;;4129092;28;20460;-67
2023/01/29 03:22:44;;;;;;;10.50;5.23;;;-0.80;99.90;;;;;;4129435;28;20421;-68
2023/01/29 03:32:07;;;;;;;10.80;6.13;;;-0.90;99.90;;;;;;4132285;28;20487;-67
2023/01/29 03:34:23;;;;;;;10.33;4.93;;;-1.10;99.90;;;;;;4132419;28;21012;-67
2023/01/29 03:36:44;;;;;;;6.50;4.30;;;-1.10;99.90;;;;;;4116649;28;20418;-68
2023/01/29 03:38:45;;;;;;;8.20;5.07;;;-1.10;99.90;;;;;;4116890;28;21163;-67
2023/01/29 03:40:56;;;;;;;9.60;5.10;;;-1.00;99.90;;;;;;4132211;28;20425;-67
2023/01/29 03:43:28;;;;;;;6.90;4.47;;;-0.90;99.90;;;;;;4116021;28;20187;-67
2023/01/29 03:45:41;;;;;;;7.43;5.47;;;-1.00;99.90;;;;;;4116443;28;20449;-67
2023/01/29 03:48:22;;;;;;;7.43;4.40;;;-1.00;99.90;;;;;;4150291;28;20471;-67
2023/01/29 03:50:45;;;;;;;6.97;4.60;;;-1.00;99.90;;;;;;4109563;28;20441;-67
2023/01/29 03:52:48;;;;;;;8.20;5.17;;;-0.90;99.90;;;;;;4149148;28;20834;-67
2023/01/29 03:55:09;;;;;;;5.87;4.50;;;-1.00;99.90;;;;;;4132138;28;20520;-67
2023/01/29 03:57:35;;;;;;;8.47;5.23;;;-0.90;99.90;;;;;;4149521;28;20908;-67
2023/01/29 03:59:47;;;;;;;8.03;4.50;;;-0.90;99.90;;;;;;4132271;28;20433;-68
2023/01/29 04:01:57;;;;;;;5.47;3.87;;;-0.90;99.90;;;;;;4131925;28;20483;-67
2023/01/29 04:04:30;;;;;;;7.57;4.63;;;-0.80;99.90;;;;;;4117384;28;20484;-68
2023/01/29 04:06:34;;;;;;;7.43;4.87;;;-1.10;99.90;;;;;;4145952;28;20857;-67
2023/01/29 04:09:22;;;;;;;6.23;4.17;;;-1.20;99.90;;;;;;4132037;28;20457;-66
2023/01/29 04:11:24;;;;;;;5.97;4.20;;;-1.20;99.90;;;;;;4149057;28;20459;-67
2023/01/29 04:13:26;;;;;;;6.10;4.43;;;-1.30;99.90;;;;;;4132129;28;20472;-67
2023/01/29 04:15:32;;;;;;;8.97;5.53;;;-1.40;99.90;;;;;;4116074;28;20484;-67
2023/01/29 04:17:39;;;;;;;5.83;3.90;;;-1.40;99.90;;;;;;4131723;28;20447;-67
2023/01/29 04:19:40;;;;;;;7.47;4.20;;;-1.50;99.90;;;;;;4132089;28;20406;-67
2023/01/29 04:21:41;;;;;;;4.97;3.63;;;-1.60;99.90;;;;;;4149413;28;20508;-67
2023/01/29 04:23:42;;;;;;;6.10;3.97;;;-1.40;99.90;;;;;;4115763;28;20202;-67
2023/01/29 04:25:54;;;;;;;7.03;3.87;;;-1.30;99.90;;;;;;4148465;28;20429;-67
2023/01/29 04:28:19;;;;;;;7.17;3.87;;;-1.30;99.90;;;;;;4115752;28;20198;-67
2023/01/29 04:30:58;;;;;;;5.40;3.63;;;-1.50;99.90;;;;;;4131515;28;20413;-67
2023/01/29 04:33:14;;;;;;;4.30;3.13;;;-1.60;99.90;;;;;;4131376;28;20491;-68
2023/01/29 04:35:46;;;;;;;5.20;3.67;;;-1.50;99.90;;;;;;4151971;28;20408;-68
2023/01/29 04:38:07;;;;;;;5.37;3.60;;;-1.40;99.90;;;;;;4149182;28;20841;-65
2023/01/29 04:40:33;;;;;;;4.63;3.00;;;-1.30;99.90;;;;;;4114944;28;20438;-65
2023/01/29 04:43:20;;;;;;;4.47;2.90;;;-1.30;99.90;;;;;;4132098;28;20556;-65
2023/01/29 04:46:09;;;;;;;5.53;3.73;;;-1.10;99.90;;;;;;4113907;28;20901;-65
2023/01/29 04:48:40;;;;;;;4.80;3.07;;;-1.20;99.90;;;;;;4137663;28;20450;-66
2023/01/29 04:51:02;;;;;;;4.73;3.27;;;-1.30;99.90;;;;;;4148798;28;20472;-66
2023/01/29 04:53:24;;;;;;;4.67;3.33;;;-1.30;99.90;;;;;;4148507;28;20551;-66
2023/01/29 04:55:39;;;;;;;5.73;3.27;;;-1.20;99.90;;;;;;4149141;28;20407;-66
2023/01/29 04:57:49;;;;;;;4.67;3.10;;;-1.30;99.90;;;;;;4115232;28;20510;-66
2023/01/29 05:00:00;;;;;;;5.13;3.40;;;-1.20;99.90;;;;;;4148309;28;20440;-66
2023/01/29 05:02:02;;;;;;;4.27;3.00;;;-1.20;99.90;;;;;;4148864;28;20508;-66
2023/01/29 05:04:16;;;;;;;3.97;3.03;;;-1.20;99.90;;;;;;4114939;28;20895;-66
2023/01/29 05:06:19;;;;;;;4.67;3.40;;;-1.40;99.90;;;;;;4147698;28;20768;-66
2023/01/29 05:08:24;;;;;;;5.47;3.50;;;-1.30;99.90;;;;;;4148161;28;20452;-67
2023/01/29 05:10:25;;;;;;;3.97;2.97;;;-1.40;99.90;;;;;;4130237;28;20477;-65
2023/01/29 05:12:29;;;;;;;4.73;3.33;;;-1.40;99.90;;;;;;4127706;28;20479;-66
2023/01/29 05:14:33;;;;;;;6.43;3.10;;;-1.50;99.90;;;;;;4130781;28;20440;-66
2023/01/29 05:16:41;;;;;;;4.17;3.17;;;-1.50;99.90;;;;;;4098890;28;20996;-66
2023/01/29 05:18:42;;;;;;;4.43;3.30;;;-1.50;99.90;;;;;;4141877;28;20464;-66
2023/01/29 05:20:44;;;;;;;4.53;3.10;;;-1.40;99.90;;;;;;4179169;28;20438;-67
2023/01/29 05:22:46;;;;;;;5.87;3.50;;;-1.30;99.90;;;;;;4147273;28;20193;-67
2023/01/29 05:24:49;;;;;;;5.60;3.90;;;-1.20;99.90;;;;;;4148536;28;20436;-67
2023/01/29 05:29:12;;;;;;;5.57;3.77;;;-1.30;99.90;;;;;;4152011;28;20455;-67
2023/01/29 05:31:12;;;;;;;6.40;3.27;;;-1.20;99.90;;;;;;4132871;28;20865;-66
2023/01/29 05:33:30;;;;;;;4.97;3.40;;;-1.20;99.90;;;;;;4149408;28;20213;-66
2023/01/29 05:35:31;;;;;;;5.23;3.40;;;-1.10;99.90;;;;;;4166689;28;20228;-66
2023/01/29 05:37:32;;;;;;;4.83;3.40;;;-1.00;99.90;;;;;;4133772;28;20426;-67
2023/01/29 05:39:33;;;;;;;5.83;3.50;;;-1.10;99.90;;;;;;4167095;28;20223;-66
2023/01/29 05:41:34;;;;;;;3.90;3.23;;;-1.10;99.90;;;;;;4166897;28;20436;-65
2023/01/29 05:43:35;;;;;;;5.23;3.43;;;-1.00;99.90;;;;;;4165688;28;20446;-66
2023/01/29 05:45:36;;;;;;;5.70;3.57;;;-0.90;99.90;;;;;;4163678;28;20193;-66
2023/01/29 05:47:36;;;;;;;6.17;3.53;;;-1.10;99.90;;;;;;4150511;28;20451;-68
2023/01/29 05:49:37;;;;;;;5.37;4.20;;;-1.00;99.90;;;;;;4149833;28;20198;-63
2023/01/29 05:51:38;;;;;;;5.17;3.73;;;-1.10;99.90;;;;;;4133537;28;20272;-66
2023/01/29 05:53:39;;;;;;;5.80;3.87;;;-1.10;99.90;;;;;;4151092;28;20608;-66
2023/01/29 05:55:44;;;;;;;4.43;3.20;;;-1.30;99.90;;;;;;4133806;28;20445;-66
2023/01/29 05:57:46;;;;;;;6.17;3.83;;;-1.50;99.90;;;;;;4166273;28;20216;-66
2023/01/29 05:59:48;;;;;;;5.80;4.03;;;-1.60;99.90;;;;;;4150920;28;20940;-67
2023/01/29 06:01:51;;;;;;;5.37;3.80;;;-1.60;99.90;;;;;;4165612;28;20502;-66
2023/01/29 06:03:51;;;;;;;6.93;4.03;;;-1.50;99.90;;;;;;4151764;28;20439;-66
2023/01/29 06:05:55;;;;;;;7.33;4.07;;;-1.40;99.90;;;;;;4133767;28;20429;-66
2023/01/29 06:07:56;;;;;;;4.63;3.40;;;-1.40;99.90;;;;;;4133431;28;20209;-65
2023/01/29 06:09:56;;;;;;;5.27;3.23;;;-1.30;99.90;;;;;;4150482;28;20943;-66
2023/01/29 06:11:57;;;;;;;4.13;3.10;;;-1.40;99.90;;;;;;4150993;28;20212;-66
2023/01/29 06:13:58;;;;;;;5.00;3.30;;;-1.50;99.90;;;;;;4150023;28;20190;-66
2023/01/29 06:15:59;;;;;;;5.07;3.40;;;-1.70;99.90;;;;;;4146521;28;20198;-66
2023/01/29 06:18:01;;;;;;;5.37;3.73;;;-1.90;99.90;;;;;;4131082;28;20297;-65
2023/01/29 06:20:03;;;;;;;5.40;4.13;;;-1.80;99.90;;;;;;4148043;28;20798;-67
2023/01/29 06:22:04;;;;;;;6.50;3.70;;;-1.90;99.90;;;;;;4130663;28;20986;-66
2023/01/29 06:24:05;;;;;;;4.80;3.17;;;-1.90;99.90;;;;;;4130355;28;20445;-66
2023/01/29 06:26:11;;;;;;;5.40;3.70;;;-2.00;99.90;;;;;;4147727;28;20247;-66
2023/01/29 06:28:12;;;;;;;4.90;3.43;;;-2.10;99.90;;;;;;4130257;28;20992;-66
2023/01/29 06:30:13;;;;;;;5.30;3.63;;;-2.30;99.90;;;;;;4129402;28;20525;-65
2023/01/29 06:32:14;;;;;;;5.03;3.30;;;-2.40;99.90;;;;;;4129880;28;20225;-66
2023/01/29 06:34:15;;;;;;;5.07;3.60;;;-2.40;99.90;;;;;;4129618;28;20925;-67
2023/01/29 06:36:16;;;;;;;4.90;3.27;;;-2.20;99.90;;;;;;4132361;28;20828;-66
2023/01/29 06:38:17;;;;;;;6.03;3.40;;;-2.20;99.90;;;;;;4147084;28;20670;-66
2023/01/29 06:40:17;;;;;;;6.33;4.07;;;-2.30;99.90;;;;;;4129585;28;20442;-66
2023/01/29 06:42:19;;;;;;;7.30;3.90;;;-2.30;99.90;;;;;;4129661;28;20724;-66
2023/01/29 06:44:20;;;;;;;5.97;4.43;;;-2.40;99.90;;;;;;4129743;28;20213;-66
2023/01/29 06:46:20;;;;;;;5.53;3.63;;;-2.30;99.90;;;;;;4129883;28;21022;-66
2023/01/29 06:48:23;;;;;;;5.30;3.60;;;-2.20;99.90;;;;;;4147373;28;20239;-66
2023/01/29 06:50:24;;;;;;;5.30;3.30;;;-2.10;99.90;;;;;;4129608;28;20231;-66
2023/01/29 06:52:27;;;;;;;4.97;3.10;;;-1.90;99.90;;;;;;4128979;28;20885;-66
2023/01/29 06:54:29;;;;;;;4.80;2.97;;;-1.90;99.90;;;;;;4147307;28;20209;-66
2023/01/29 06:56:30;;;;;;;5.03;3.30;;;-2.00;99.90;;;;;;4147396;28;20903;-66
2023/01/29 06:58:31;;;;;;;4.90;3.23;;;-2.00;99.90;;;;;;4154210;28;20452;-68
2023/01/29 07:00:32;;;;;;;4.80;2.90;;;-2.00;99.90;;;;;;4151976;28;20658;-65
2023/01/29 07:02:32;;;;;;;4.57;3.20;;;-2.10;99.90;;;;;;4113750;28;20623;-65
2023/01/29 07:04:34;;;;;;;4.10;2.90;;;-2.20;99.90;;;;;;4129480;28;20469;-66
2023/01/29 07:06:35;;;;;;;4.07;2.67;;;-2.30;99.90;;;;;;4114863;28;20202;-66
2023/01/29 07:08:39;;;;;;;4.73;3.10;;;-2.30;99.90;;;;;;4132387;28;20492;-66
2023/01/29 07:10:39;;;;;;;3.83;2.87;;;-2.30;99.90;;;;;;4132411;28;20565;-65
2023/01/29 07:12:40;;;;;;;4.57;3.40;;;-2.30;99.90;;;;;;4150299;28;20515;-66
2023/01/29 07:14:41;;;;;;;4.87;3.20;;;-2.20;99.90;;;;;;4150519;28;20197;-66
2023/01/29 07:16:42;;;;;;;6.80;4.23;;;-2.30;99.90;;;;;;4150952;28;20551;-66
2023/01/29 07:18:44;;;;;;;5.30;3.23;;;-2.30;99.90;;;;;;4133499;28;20971;-66
2023/01/29 07:20:45;;;;;;;2.97;2.60;;;-2.30;99.90;;;;;;4133075;28;20185;-66
2023/01/29 07:22:45;;;;;;;4.30;3.17;;;-2.30;99.90;;;;;;4117706;28;20496;-66
2023/01/29 07:24:47;;;;;;;4.03;2.87;;;-2.30;99.90;;;;;;4150728;28;20341;-66
2023/01/29 07:26:49;;;;;;;6.43;4.53;;;-2.30;99.90;;;;;;4132875;28;20583;-66
2023/01/29 07:28:50;;;;;;;4.37;3.03;;;-2.10;99.90;;;;;;4133296;28;20828;-68
2023/01/29 07:30:56;;;;;;;5.30;4.03;;;-1.80;99.90;;;;;;4132191;28;20444;-66
2023/01/29 07:33:05;;;;;;;5.27;3.80;;;-1.70;99.90;;;;;;4117069;28;20924;-66
2023/01/29 07:35:07;;;;;;;6.17;3.97;;;-1.60;99.90;;;;;;4149922;28;20746;-66
2023/01/29 07:37:10;;;;;;;10.13;7.70;;;-1.60;99.90;;;;;;4116898;28;20439;-66
2023/01/29 07:39:10;;;;;;;5.30;4.20;;;-1.60;99.90;;;;;;4132801;28;20517;-66
2023/01/29 07:41:11;;;;;;;6.90;5.23;;;-1.40;99.90;;;;;;4149022;28;20436;-67
2023/01/29 07:43:12;;;;;;;4.13;2.90;;;-1.30;99.90;;;;;;4133251;28;20676;-68
2023/01/29 07:45:13;;;;;;;3.90;2.80;;;-1.20;99.90;;;;;;4150072;28;20630;-67
2023/01/29 07:47:14;;;;;;;4.07;2.90;;;-1.20;99.90;;;;;;4151157;28;20507;-68
2023/01/29 07:49:16;;;;;;;4.23;2.60;;;-1.40;99.90;;;;;;4149471;28;20584;-67
2023/01/29 07:51:17;;;;;;;3.63;2.83;;;-1.50;99.90;;;;;;4150198;28;20928;-68
2023/01/29 07:53:18;;;;;;;5.67;3.23;;;-1.50;99.90;;;;;;4150023;28;20845;-67
2023/01/29 07:55:18;;;;;;;6.43;3.63;;;-1.60;99.90;;;;;;4165152;28;20427;-67
2023/01/29 07:57:23;;;;;;;4.17;2.93;;;-1.70;99.90;;;;;;4133919;28;20188;-68
2023/01/29 07:59:23;;;;;;;3.70;2.67;;;-1.70;99.90;;;;;;4133080;28;20198;-68
2023/01/29 08:01:25;;;;;;;4.57;2.90;;;-1.70;99.90;;;;;;4165080;28;20812;-66
2023/01/29 08:03:26;;;;;;;4.40;3.77;;;-1.60;99.90;;;;;;4148203;28;20433;-67
2023/01/29 08:05:26;;;;;;;5.70;3.73;;;-1.60;99.90;;;;;;4144434;28;20195;-66
2023/01/29 08:07:27;;;;;;;5.97;4.20;;;-1.80;99.90;;;;;;4115878;28;20986;-67
2023/01/29 08:09:28;;;;;;;4.90;3.40;;;-2.00;99.90;;;;;;4132705;28;20193;-67
2023/01/29 08:11:30;;;;;;;4.23;3.37;;;-1.90;99.90;;;;;;4132776;28;20578;-68
2023/01/29 08:13:33;;;;;;;6.20;4.57;;;-1.80;99.90;;;;;;4133273;28;20469;-68
2023/01/29 08:15:34;;;;;;;6.53;4.00;;;-1.60;99.90;;;;;;4132464;28;20429;-67
2023/01/29 08:17:35;;;;;;;3.97;3.10;;;-1.40;99.90;;;;;;4165143;28;20455;-70
2023/01/29 08:19:36;;;;;;;6.13;3.90;;;-1.30;99.90;;;;;;4149391;28;20456;-66
2023/01/29 08:21:37;;;;;;;4.20;3.33;;;-1.10;99.90;;;;;;4133425;28;20473;-68
2023/01/29 08:23:38;;;;;;;4.13;3.00;;;-0.90;99.90;;;;;;4141858;28;20449;-68
2023/01/29 08:25:39;;;;;;;4.47;3.50;;;-0.80;99.60;;;;;;4142668;28;20244;-66
2023/01/29 08:27:41;;;;;;;4.83;3.30;;;-0.60;99.00;;;;;;4124127;28;20219;-67
2023/01/29 08:29:42;;;;;;;5.03;3.47;;;-0.40;98.70;;;;;;4107759;28;20495;-66
2023/01/29 08:31:43;;;;;;;4.37;3.20;;;-0.70;98.40;;;;;;4140898;28;20442;-68
2023/01/29 08:33:43;;;;;;;3.63;2.87;;;-0.60;98.20;;;;;;4132911;28;20495;-67
2023/01/29 08:35:49;;;;;;;5.13;3.37;;;-0.60;97.70;;;;;;4141063;28;20208;-67
2023/01/29 08:37:58;;;;;;;4.80;3.03;;;-0.90;99.60;;;;;;4142068;28;20251;-67
2023/01/29 08:39:59;;;;;;;4.13;3.10;;;-1.20;99.90;;;;;;4123019;28;20465;-67
2023/01/29 08:42:00;;;;;;;4.30;3.10;;;-1.20;99.90;;;;;;4156042;28;20440;-67
2023/01/29 08:44:03;;;;;;;5.57;3.53;;;-1.30;99.90;;;;;;4133708;28;20194;-68
2023/01/29 08:46:07;;;;;;;4.33;3.33;;;-1.40;99.90;;;;;;4133704;28;20201;-68
2023/01/29 08:48:08;;;;;;;6.53;3.63;;;-1.40;99.90;;;;;;4115666;28;21104;-68
2023/01/29 08:50:10;;;;;;;3.83;3.03;;;-1.50;99.90;;;;;;4115242;28;20874;-67
2023/01/29 08:52:10;;;;;;;4.23;3.07;;;-1.40;99.90;;;;;;4133649;28;21003;-68
2023/01/29 08:54:11;;;;;;;4.27;2.90;;;-1.20;99.90;;;;;;4115201;28;20434;-67
2023/01/29 08:56:12;;;;;;;4.73;3.20;;;-1.10;99.80;;;;;;4147590;28;20217;-68
2023/01/29 08:58:14;;;;;;;3.77;2.83;;;-0.90;99.50;;;;;;4132851;28;20730;-66
2023/01/29 09:00:15;;;;;;;3.40;2.43;;;-0.60;98.70;;;;;;4099489;29;20431;-67
2023/01/29 09:02:16;;;;;;;4.60;3.10;;;-0.40;97.80;;;;;;4133355;28;20464;-67
2023/01/29 09:04:16;;;;;;;6.77;3.17;;;-0.30;96.50;;;;;;4116691;28;20435;-67
2023/01/29 09:06:18;;;;;;;3.87;2.70;;;-0.40;96.90;;;;;;4132498;28;20215;-68
2023/01/29 09:08:20;;;;;;;5.10;3.80;;;-0.60;97.50;;;;;;4115993;28;20210;-66
2023/01/29 09:10:20;;;;;;;6.77;3.40;;;-0.60;98.30;;;;;;4140042;28;20451;-66
2023/01/29 09:12:21;;;;;;;4.37;3.27;;;-0.60;97.90;;;;;;4119975;28;20946;-69
2023/01/29 09:14:22;;;;;;;4.27;2.93;;;-0.60;97.70;;;;;;4114856;28;20199;-68
2023/01/29 09:16:24;;;;;;;4.07;3.03;;;-0.70;97.50;;;;;;4114992;28;20762;-67
2023/01/29 09:18:24;;;;;;;4.80;3.67;;;-0.90;98.30;;;;;;4132404;28;20210;-67
2023/01/29 09:20:25;;;;;;;3.97;3.23;;;-0.90;99.00;;;;;;4115040;28;20785;-67
2023/01/29 09:22:26;;;;;;;4.27;3.13;;;-0.70;98.60;;;;;;4132365;28;20183;-67
2023/01/29 09:24:27;;;;;;;6.03;3.30;;;-0.60;97.60;;;;;;4132525;28;20914;-67
2023/01/29 09:26:28;;;;;;;3.77;3.10;;;-0.50;98.10;;;;;;4132367;28;20466;-67
2023/01/29 09:28:29;;;;;;;3.43;2.73;;;-0.40;97.60;;;;;;4132743;28;20211;-67
2023/01/29 09:30:33;;;;;;;3.27;2.73;;;-0.10;96.80;;;;;;4131133;28;20194;-67
2023/01/29 09:32:34;;;;;;;3.90;2.60;;;0.10;96.30;;;;;;4115398;28;21006;-67
2023/01/29 09:34:36;;;;;;;4.67;2.93;;;0.40;95.40;;;;;;4132492;28;20536;-67
2023/01/29 09:36:37;;;;;;;3.83;3.30;;;0.70;94.10;;;;;;4131897;28;20188;-69
2023/01/29 09:38:37;;;;;;;5.40;3.47;;;0.80;93.30;;;;;;4115372;28;20463;-68
2023/01/29 09:41:05;;;;;;;4.23;2.90;;;0.70;93.60;;;;;;4114778;28;20279;-68
2023/01/29 09:43:15;;;;;;;12.33;6.17;;;0.70;93.30;;;;;;4114973;28;20204;-68
2023/01/29 09:45:35;;;;;;;5.30;3.67;;;0.70;92.80;;;;;;4115004;28;20422;-69
2023/01/29 09:47:36;;;;;;;6.43;5.00;;;0.50;93.30;;;;;;4115415;28;20439;-69
2023/01/29 09:50:00;;;;;;;4.87;3.30;;;0.10;94.80;;;;;;4135843;28;20436;-68
2023/01/29 09:52:14;;;;;;;6.53;4.23;;;-0.10;94.90;;;;;;4123421;28;20270;-68
2023/01/29 09:54:24;;;;;;;7.00;4.73;;;-0.10;95.40;;;;;;4123325;28;20904;-68
2023/01/29 09:56:27;;;;;;;4.33;3.27;;;-0.10;95.40;;;;;;4146018;28;20500;-69
2023/01/29 09:58:34;;;;;;;4.27;3.03;;;-0.10;95.70;;;;;;4119730;28;20538;-68
2023/01/29 10:01:18;;;;;;;4.47;2.77;;;0.20;95.70;;;;;;4126396;28;20610;-69
2023/01/29 10:03:42;;;;;;;9.13;6.27;;;0.30;94.80;;;;;;4116365;28;20976;-69
2023/01/29 10:05:45;;;;;;;4.77;3.53;;;0.70;93.40;;;;;;4125498;28;20531;-69
2023/01/29 10:08:23;;;;;;;4.17;2.87;;;0.90;92.10;;;;;;4137349;28;20500;-70
2023/01/29 10:10:50;;;;;;;4.73;3.23;;;0.70;92.50;;;;;;4119807;28;20451;-69
2023/01/29 10:13:14;;;;;;;3.50;2.63;;;1.00;92.20;;;;;;4145741;28;20478;-68
2023/01/29 10:15:21;;;;;;;4.07;2.87;;;1.00;91.30;;;;;;4133013;28;20485;-69
2023/01/29 10:18:04;;;;;;;4.50;3.00;;;0.90;91.20;;;;;;4147713;28;20434;-68
2023/01/29 10:20:29;;;;;;;4.07;3.03;;;1.00;91.60;;;;;;4121900;28;20801;-68
2023/01/29 10:23:13;;;;;;;3.73;2.83;;;1.00;91.40;;;;;;4142928;28;20520;-69
2023/01/29 10:25:19;;;;;;;4.17;3.03;;;1.20;90.80;;;;;;4096129;29;20477;-68
2023/01/29 10:27:21;;;;;;;4.80;3.27;;;1.60;88.00;;;;;;4119347;28;20536;-68
2023/01/29 10:29:22;;;;;;;7.17;5.27;;;1.30;88.90;;;;;;4116834;28;20438;-68
2023/01/29 10:31:38;;;;;;;8.00;5.17;;;1.10;91.20;;;;;;4130510;28;20535;-69
2023/01/29 10:33:42;;;;;;;5.10;3.43;;;1.00;90.90;;;;;;4150714;28;20483;-68
2023/01/29 10:35:51;;;;;;;3.47;3.10;;;1.10;91.30;;;;;;4114163;28;20502;-68
2023/01/29 10:37:53;;;;;;;3.60;3.20;;;1.30;90.80;;;;;;4141869;28;20883;-68
2023/01/29 10:39:59;;;;;;;3.90;2.90;;;1.10;90.90;;;;;;4137832;28;20429;-68
2023/01/29 10:42:23;;;;;;;4.70;3.60;;;1.20;90.70;;;;;;4122084;28;20866;-69
2023/01/29 10:44:42;;;;;;;3.87;3.00;;;1.40;90.80;;;;;;4108241;28;20473;-67
2023/01/29 10:47:13;;;;;;;6.43;4.70;;;1.70;89.60;;;;;;4132945;28;20985;-68
2023/01/29 10:49:50;;;;;;;3.17;2.80;;;1.80;88.60;;;;;;4131051;28;20571;-69
2023/01/29 10:52:03;;;;;;;3.57;2.67;;;1.80;88.30;;;;;;4119981;28;20437;-69
2023/01/29 10:54:17;;;;;;;3.43;2.63;;;1.80;90.00;;;;;;4139792;28;20425;-69
2023/01/29 10:56:51;;;;;;;3.27;2.33;;;2.20;86.10;;;;;;4124248;28;20434;-69
2023/01/29 10:59:06;;;;;;;3.33;2.47;;;2.20;84.50;;;;;;4132028;28;20457;-69
2023/01/29 11:01:09;;;;;;;2.70;2.50;;;2.10;84.40;;;;;;4146314;28;20424;-70
2023/01/29 11:03:29;;;;;;;3.47;2.50;;;1.30;90.40;;;;;;4129523;28;20880;-68
2023/01/29 11:05:43;;;;;;;4.00;2.93;;;2.00;90.70;;;;;;4116603;28;20954;-68
2023/01/29 11:07:44;;;;;;;4.90;3.60;;;2.90;86.10;;;;;;4109264;28;20458;-69
2023/01/29 11:10:11;;;;;;;3.10;2.53;;;3.00;83.20;;;;;;4119838;28;20497;-68
2023/01/29 11:12:25;;;;;;;3.97;2.97;;;3.00;81.10;;;;;;4136003;28;20466;-69
2023/01/29 11:14:53;;;;;;;3.40;3.10;;;3.20;79.70;;;;;;4124803;28;20421;-68
2023/01/29 11:16:54;;;;;;;4.40;3.00;;;3.20;78.60;;;;;;4116152;28;20444;-68
2023/01/29 11:18:59;;;;;;;4.40;2.83;;;3.10;78.80;;;;;;4145183;28;20532;-68
2023/01/29 11:21:03;;;;;;;4.20;3.03;;;2.80;81.40;;;;;;4131626;28;20917;-68
2023/01/29 11:23:04;;;;;;;3.07;2.70;;;2.90;81.10;;;;;;4136251;28;20508;-68
2023/01/29 11:25:18;;;;;;;4.33;3.30;;;2.90;79.40;;;;;;4133322;28;20496;-69
2023/01/29 11:27:28;;;;;;;3.57;2.70;;;2.50;82.20;;;;;;4129128;28;20197;-68
2023/01/29 11:29:46;;;;;;;3.33;2.83;;;2.60;82.60;;;;;;4139264;28;20451;-67
2023/01/29 11:31:47;;;;;;;3.83;2.83;;;2.70;83.80;;;;;;4113563;28;20449;-66
2023/01/29 11:34:01;;;;;;;4.07;2.90;;;2.90;82.40;;;;;;4141527;28;20441;-67